createdAt,value
2017-05-11T03:00:25.551Z,18.7
2017-05-11T03:00:51.244Z,18.68
2017-05-11T03:01:16.818Z,18.7
2017-05-11T03:01:42.383Z,18.67
2017-05-11T03:02:08.039Z,18.7
2017-05-11T03:02:33.661Z,18.59
2017-05-11T03:02:59.203Z,18.65
2017-05-11T03:03:25.471Z,18.74
2017-05-11T03:03:51.011Z,18.72
2017-05-11T03:04:16.691Z,18.67
2017-05-11T03:04:42.238Z,18.7
2017-05-11T03:05:07.782Z,18.61
2017-05-11T03:05:33.323Z,18.62
2017-05-11T03:05:58.946Z,18.68
2017-05-11T03:06:24.601Z,18.7
2017-05-11T03:06:50.149Z,18.72
2017-05-11T03:07:15.710Z,18.72
2017-05-11T03:07:41.286Z,18.73
2017-05-11T03:08:06.850Z,18.67
2017-05-11T03:08:32.410Z,18.7
2017-05-11T03:08:57.984Z,18.7
2017-05-11T03:09:23.559Z,18.73
2017-05-11T03:09:49.110Z,18.72
2017-05-11T03:10:14.673Z,18.68
2017-05-11T03:10:40.235Z,18.67
2017-05-11T03:11:05.980Z,18.65
2017-05-11T03:11:31.557Z,18.61
2017-05-11T03:11:57.087Z,18.7
2017-05-11T03:12:22.726Z,18.7
2017-05-11T03:12:48.299Z,18.68
2017-05-11T03:13:13.861Z,18.74
2017-05-11T03:13:39.423Z,18.67
2017-05-11T03:14:04.973Z,18.73
2017-05-11T03:14:30.511Z,18.61
2017-05-11T03:14:56.060Z,18.68
2017-05-11T03:15:21.601Z,18.7
2017-05-11T03:15:47.150Z,18.7
2017-05-11T03:16:12.693Z,18.7
2017-05-11T03:16:38.250Z,18.68
2017-05-11T03:17:03.902Z,18.72
2017-05-11T03:17:29.513Z,18.73
2017-05-11T03:17:55.174Z,18.65
2017-05-11T03:18:20.728Z,18.73
2017-05-11T03:18:46.312Z,18.7
2017-05-11T03:19:11.862Z,18.7
2017-05-11T03:19:37.435Z,18.67
2017-05-11T03:20:03.150Z,18.68
2017-05-11T03:20:28.694Z,18.64
2017-05-11T03:20:54.254Z,18.68
2017-05-11T03:21:19.933Z,18.59
2017-05-11T03:21:45.500Z,18.7
2017-05-11T03:22:11.050Z,18.61
2017-05-11T03:22:36.620Z,18.67
2017-05-11T03:23:02.189Z,18.61
2017-05-11T03:23:27.783Z,18.65
2017-05-11T03:23:53.347Z,18.7
2017-05-11T03:24:18.973Z,18.58
2017-05-11T03:24:44.640Z,18.7
2017-05-11T03:25:10.181Z,18.67
2017-05-11T03:25:35.760Z,18.7
2017-05-11T03:26:01.311Z,18.7
2017-05-11T03:26:26.850Z,18.67
2017-05-11T03:26:52.417Z,18.68
2017-05-11T03:27:17.969Z,18.65
2017-05-11T03:27:43.608Z,18.65
2017-05-11T03:28:09.183Z,18.68
2017-05-11T03:28:34.750Z,18.68
2017-05-11T03:29:00.349Z,18.7
2017-05-11T03:29:25.922Z,18.7
2017-05-11T03:29:51.487Z,18.68
2017-05-11T03:30:17.100Z,18.68
2017-05-11T03:30:42.663Z,18.68
2017-05-11T03:31:08.233Z,18.67
2017-05-11T03:31:33.795Z,18.7
2017-05-11T03:31:59.361Z,18.67
2017-05-11T03:32:24.935Z,18.68
2017-05-11T03:32:50.624Z,18.7
2017-05-11T03:33:16.195Z,18.72
2017-05-11T03:33:41.765Z,18.67
2017-05-11T03:34:07.329Z,18.7
2017-05-11T03:34:32.894Z,18.68
2017-05-11T03:34:58.462Z,18.65
2017-05-11T03:35:24.042Z,18.67
2017-05-11T03:35:49.593Z,18.68
2017-05-11T03:36:15.141Z,18.61
2017-05-11T03:36:40.702Z,18.62
2017-05-11T03:37:06.481Z,18.64
2017-05-11T03:37:32.042Z,18.65
2017-05-11T03:37:57.573Z,18.68
2017-05-11T03:38:23.214Z,18.67
2017-05-11T03:38:48.750Z,18.73
2017-05-11T03:39:14.301Z,18.61
2017-05-11T03:39:39.868Z,18.68
2017-05-11T03:40:05.450Z,18.72
2017-05-11T03:40:31.018Z,18.68
2017-05-11T03:40:56.610Z,18.62
2017-05-11T03:41:22.171Z,18.67
2017-05-11T03:41:47.754Z,18.64
2017-05-11T03:42:13.352Z,18.61
2017-05-11T03:42:38.925Z,18.62
2017-05-11T03:43:04.487Z,18.59
2017-05-11T03:43:30.132Z,18.68
2017-05-11T03:43:55.673Z,18.68
2017-05-11T03:44:21.244Z,18.62
2017-05-11T03:44:46.822Z,18.61
2017-05-11T03:45:12.387Z,18.65
2017-05-11T03:45:37.947Z,18.58
2017-05-11T03:46:03.501Z,18.59
2017-05-11T03:46:29.074Z,18.62
2017-05-11T03:46:54.664Z,18.55
2017-05-11T03:47:21.226Z,18.61
2017-05-11T03:47:45.823Z,18.62
2017-05-11T03:48:11.378Z,18.58
2017-05-11T03:48:36.943Z,18.58
2017-05-11T03:49:02.495Z,18.55
2017-05-11T03:49:28.127Z,18.59
2017-05-11T03:49:53.677Z,18.61
2017-05-11T03:50:19.238Z,18.67
2017-05-11T03:50:44.800Z,18.55
2017-05-11T03:51:10.467Z,18.64
2017-05-11T03:51:36.022Z,18.62
2017-05-11T03:52:01.643Z,18.58
2017-05-11T03:52:27.215Z,18.67
2017-05-11T03:52:52.771Z,18.54
2017-05-11T03:53:18.342Z,18.68
2017-05-11T03:53:43.914Z,18.67
2017-05-11T03:54:09.555Z,18.61
2017-05-11T03:54:35.115Z,18.59
2017-05-11T03:55:00.664Z,18.55
2017-05-11T03:55:26.204Z,18.65
2017-05-11T03:55:51.751Z,18.65
2017-05-11T03:56:17.301Z,18.57
2017-05-11T03:56:42.851Z,18.61
2017-05-11T03:57:08.510Z,18.61
2017-05-11T03:57:34.072Z,18.7
2017-05-11T03:57:59.715Z,18.62
2017-05-11T03:58:25.318Z,18.64
2017-05-11T03:58:50.873Z,18.58
2017-05-11T03:59:16.443Z,18.64
2017-05-11T03:59:42.036Z,18.57
2017-05-11T04:00:07.632Z,18.59
2017-05-11T04:00:33.193Z,18.65
2017-05-11T04:00:58.735Z,18.67
2017-05-11T04:01:24.304Z,18.62
2017-05-11T04:01:49.875Z,18.61
2017-05-11T04:02:15.570Z,18.67
2017-05-11T04:02:41.121Z,18.72
2017-05-11T04:03:06.704Z,18.58
2017-05-11T04:03:32.276Z,18.61
2017-05-11T04:03:57.845Z,18.64
2017-05-11T04:04:23.396Z,18.64
2017-05-11T04:04:48.964Z,18.57
2017-05-11T04:05:14.536Z,18.58
2017-05-11T04:05:40.093Z,18.65
2017-05-11T04:06:05.656Z,18.59
2017-05-11T04:06:31.202Z,18.61
2017-05-11T04:06:56.771Z,18.58
2017-05-11T04:07:22.319Z,18.58
2017-05-11T04:07:47.861Z,18.61
2017-05-11T04:08:13.407Z,18.65
2017-05-11T04:08:38.959Z,18.64
2017-05-11T04:09:04.529Z,18.58
2017-05-11T04:09:30.105Z,18.58
2017-05-11T04:09:55.763Z,18.58
2017-05-11T04:10:21.334Z,18.57
2017-05-11T04:10:47.054Z,18.67
2017-05-11T04:11:12.626Z,18.54
2017-05-11T04:11:38.182Z,18.7
2017-05-11T04:12:03.753Z,18.64
2017-05-11T04:12:29.430Z,18.57
2017-05-11T04:12:55.195Z,18.64
2017-05-11T04:13:20.774Z,18.64
2017-05-11T04:13:46.338Z,18.55
2017-05-11T04:14:11.891Z,18.68
2017-05-11T04:14:37.451Z,18.64
2017-05-11T04:15:03.036Z,18.58
2017-05-11T04:15:28.656Z,18.59
2017-05-11T04:15:54.193Z,18.67
2017-05-11T04:16:19.890Z,18.61
2017-05-11T04:16:45.441Z,18.57
2017-05-11T04:17:10.984Z,18.64
2017-05-11T04:17:36.613Z,18.55
2017-05-11T04:18:02.266Z,18.65
2017-05-11T04:18:27.861Z,18.58
2017-05-11T04:18:53.401Z,18.55
2017-05-11T04:19:18.954Z,18.58
2017-05-11T04:19:44.523Z,18.57
2017-05-11T04:20:10.094Z,18.59
2017-05-11T04:20:35.675Z,18.61
2017-05-11T04:21:01.240Z,18.59
2017-05-11T04:21:26.803Z,18.57
2017-05-11T04:21:52.352Z,18.61
2017-05-11T04:22:17.942Z,18.58
2017-05-11T04:22:43.507Z,18.59
2017-05-11T04:23:09.179Z,18.62
2017-05-11T04:23:34.751Z,18.64
2017-05-11T04:24:00.335Z,18.65
2017-05-11T04:24:26.032Z,18.54
2017-05-11T04:24:51.654Z,18.64
2017-05-11T04:25:17.211Z,18.62
2017-05-11T04:25:42.771Z,18.62
2017-05-11T04:26:08.352Z,18.58
2017-05-11T04:26:33.907Z,18.62
2017-05-11T04:26:59.460Z,18.57
2017-05-11T04:27:25.020Z,18.58
2017-05-11T04:27:50.569Z,18.61
2017-05-11T04:28:16.110Z,18.64
2017-05-11T04:28:41.661Z,18.65
2017-05-11T04:29:07.220Z,18.59
2017-05-11T04:29:32.761Z,18.55
2017-05-11T04:29:58.309Z,18.59
2017-05-11T04:30:23.956Z,18.58
2017-05-11T04:30:49.534Z,18.61
2017-05-11T04:31:15.101Z,18.58
2017-05-11T04:31:40.664Z,18.58
2017-05-11T04:32:06.394Z,18.61
2017-05-11T04:32:31.955Z,18.58
2017-05-11T04:32:57.524Z,18.61
2017-05-11T04:33:23.091Z,18.64
2017-05-11T04:33:48.760Z,18.61
2017-05-11T04:34:14.310Z,18.62
2017-05-11T04:34:39.883Z,18.57
2017-05-11T04:35:05.465Z,18.61
2017-05-11T04:35:31.025Z,18.61
2017-05-11T04:35:56.584Z,18.58
2017-05-11T04:36:22.144Z,18.57
2017-05-11T04:36:47.762Z,18.58
2017-05-11T04:37:13.322Z,18.57
2017-05-11T04:37:38.868Z,18.55
2017-05-11T04:38:04.422Z,18.54
2017-05-11T04:38:30.144Z,18.57
2017-05-11T04:38:55.689Z,18.57
2017-05-11T04:39:21.222Z,18.58
2017-05-11T04:39:46.772Z,18.57
2017-05-11T04:40:12.341Z,18.55
2017-05-11T04:40:37.904Z,18.55
2017-05-11T04:41:03.532Z,18.55
2017-05-11T04:41:29.063Z,18.55
2017-05-11T04:41:54.741Z,18.57
2017-05-11T04:42:20.284Z,18.58
2017-05-11T04:42:45.840Z,18.59
2017-05-11T04:43:11.411Z,18.57
2017-05-11T04:44:04.922Z,18.46
2017-05-11T04:44:30.485Z,18.57
2017-05-11T04:44:56.042Z,18.54
2017-05-11T04:45:21.591Z,18.55
2017-05-11T04:45:47.144Z,18.55
2017-05-11T04:46:12.683Z,18.55
2017-05-11T04:46:38.233Z,18.57
2017-05-11T04:47:03.803Z,18.55
2017-05-11T04:47:29.375Z,18.49
2017-05-11T04:47:54.951Z,18.55
2017-05-11T04:48:20.529Z,18.55
2017-05-11T04:48:46.095Z,18.61
2017-05-11T04:49:11.703Z,18.54
2017-05-11T04:49:37.250Z,18.57
2017-05-11T04:50:02.826Z,18.54
2017-05-11T04:50:28.416Z,18.59
2017-05-11T04:50:53.966Z,18.59
2017-05-11T04:51:19.539Z,18.55
2017-05-11T04:51:45.133Z,18.55
2017-05-11T04:52:10.765Z,18.58
2017-05-11T04:52:36.455Z,18.55
2017-05-11T04:53:02.013Z,18.57
2017-05-11T04:53:27.649Z,18.55
2017-05-11T04:53:53.202Z,18.57
2017-05-11T04:54:18.757Z,18.54
2017-05-11T04:54:44.484Z,18.58
2017-05-11T04:55:10.031Z,18.61
2017-05-11T04:55:35.613Z,18.55
2017-05-11T04:56:01.286Z,18.52
2017-05-11T04:56:26.841Z,18.55
2017-05-11T04:56:52.389Z,18.54
2017-05-11T04:57:18.035Z,18.57
2017-05-11T04:57:43.604Z,18.55
2017-05-11T04:58:09.165Z,18.58
2017-05-11T04:58:34.790Z,18.58
2017-05-11T04:59:00.370Z,18.55
2017-05-11T04:59:25.943Z,18.57
2017-05-11T04:59:51.624Z,18.57
2017-05-11T05:00:17.191Z,18.57
2017-05-11T05:00:42.762Z,18.57
2017-05-11T05:01:08.350Z,18.52
2017-05-11T05:01:33.924Z,18.57
2017-05-11T05:01:59.502Z,18.55
2017-05-11T05:02:25.082Z,18.55
2017-05-11T05:02:50.692Z,18.62
2017-05-11T05:03:16.254Z,18.55
2017-05-11T05:03:41.915Z,18.58
2017-05-11T05:04:07.523Z,18.55
2017-05-11T05:04:33.078Z,18.5
2017-05-11T05:04:59.571Z,18.57
2017-05-11T05:05:25.144Z,18.58
2017-05-11T05:05:50.722Z,18.57
2017-05-11T05:06:16.445Z,18.52
2017-05-11T05:06:42.021Z,18.55
2017-05-11T05:07:07.624Z,18.58
2017-05-11T05:07:33.274Z,18.55
2017-05-11T05:07:58.842Z,18.57
2017-05-11T05:08:24.413Z,18.46
2017-05-11T05:08:50.004Z,18.55
2017-05-11T05:09:15.567Z,18.55
2017-05-11T05:09:41.145Z,18.62
2017-05-11T05:10:06.697Z,18.55
2017-05-11T05:10:32.264Z,18.52
2017-05-11T05:10:58.351Z,18.54
2017-05-11T05:11:23.928Z,18.58
2017-05-11T05:11:49.491Z,18.49
2017-05-11T05:12:15.036Z,18.58
2017-05-11T05:12:40.587Z,18.49
2017-05-11T05:13:06.151Z,18.46
2017-05-11T05:13:31.763Z,18.54
2017-05-11T05:13:57.346Z,18.58
2017-05-11T05:14:22.900Z,18.57
2017-05-11T05:14:48.521Z,18.58
2017-05-11T05:15:14.068Z,18.55
2017-05-11T05:15:39.629Z,18.58
2017-05-11T05:16:05.184Z,18.57
2017-05-11T05:16:30.766Z,18.52
2017-05-11T05:16:56.314Z,18.44
2017-05-11T05:17:21.865Z,18.58
2017-05-11T05:17:47.427Z,18.5
2017-05-11T05:18:13.006Z,18.58
2017-05-11T05:18:38.636Z,18.54
2017-05-11T05:19:04.195Z,18.52
2017-05-11T05:19:29.743Z,18.54
2017-05-11T05:19:55.451Z,18.5
2017-05-11T05:20:21.008Z,18.5
2017-05-11T05:20:46.696Z,18.52
2017-05-11T05:21:12.242Z,18.5
2017-05-11T05:21:37.793Z,18.55
2017-05-11T05:22:03.348Z,18.49
2017-05-11T05:22:28.902Z,18.46
2017-05-11T05:22:54.471Z,18.57
2017-05-11T05:23:20.121Z,18.5
2017-05-11T05:23:45.666Z,18.54
2017-05-11T05:24:11.234Z,18.49
2017-05-11T05:24:36.891Z,18.55
2017-05-11T05:25:02.486Z,18.52
2017-05-11T05:25:28.044Z,18.55
2017-05-11T05:25:53.603Z,18.52
2017-05-11T05:26:19.277Z,18.55
2017-05-11T05:26:44.874Z,18.59
2017-05-11T05:27:10.434Z,18.55
2017-05-11T05:27:35.991Z,18.54
2017-05-11T05:28:01.543Z,18.43
2017-05-11T05:28:27.249Z,18.52
2017-05-11T05:28:52.855Z,18.49
2017-05-11T05:29:18.428Z,18.57
2017-05-11T05:29:43.989Z,18.52
2017-05-11T05:30:09.551Z,18.43
2017-05-11T05:30:35.144Z,18.49
2017-05-11T05:31:00.722Z,18.49
2017-05-11T05:31:26.291Z,18.52
2017-05-11T05:31:51.850Z,18.52
2017-05-11T05:32:17.388Z,18.54
2017-05-11T05:32:43.006Z,18.5
2017-05-11T05:33:08.560Z,18.52
2017-05-11T05:33:34.120Z,18.5
2017-05-11T05:33:59.664Z,18.52
2017-05-11T05:34:25.243Z,18.52
2017-05-11T05:34:50.785Z,18.5
2017-05-11T05:35:16.343Z,18.47
2017-05-11T05:35:41.999Z,18.54
2017-05-11T05:36:07.531Z,18.52
2017-05-11T05:36:33.097Z,18.62
2017-05-11T05:36:58.638Z,18.52
2017-05-11T05:37:24.177Z,18.52
2017-05-11T05:37:49.727Z,18.55
2017-05-11T05:38:15.275Z,18.54
2017-05-11T05:38:40.944Z,18.49
2017-05-11T05:39:06.496Z,18.55
2017-05-11T05:39:32.064Z,18.54
2017-05-11T05:39:57.639Z,18.61
2017-05-11T05:40:23.236Z,18.52
2017-05-11T05:40:48.807Z,18.49
2017-05-11T05:41:14.362Z,18.49
2017-05-11T05:41:39.940Z,18.43
2017-05-11T05:42:05.461Z,18.49
2017-05-11T05:42:31.036Z,18.55
2017-05-11T05:42:56.696Z,18.61
2017-05-11T05:43:22.255Z,18.52
2017-05-11T05:43:47.814Z,18.57
2017-05-11T05:44:13.354Z,18.43
2017-05-11T05:44:38.942Z,18.55
2017-05-11T05:45:04.495Z,18.58
2017-05-11T05:45:30.050Z,18.55
2017-05-11T05:45:55.659Z,18.55
2017-05-11T05:46:21.322Z,18.5
2017-05-11T05:46:46.884Z,18.55
2017-05-11T05:47:12.445Z,18.49
2017-05-11T05:47:38.142Z,18.52
2017-05-11T05:48:03.716Z,18.58
2017-05-11T05:48:29.291Z,18.5
2017-05-11T05:48:54.946Z,18.55
2017-05-11T05:49:20.532Z,18.5
2017-05-11T05:49:46.093Z,18.58
2017-05-11T05:50:39.411Z,18.5
2017-05-11T05:51:04.971Z,18.55
2017-05-11T05:51:30.537Z,18.57
2017-05-11T05:51:56.087Z,18.57
2017-05-11T05:52:21.664Z,18.55
2017-05-11T05:52:47.287Z,18.55
2017-05-11T05:53:12.912Z,18.58
2017-05-11T05:53:38.482Z,18.55
2017-05-11T05:54:04.028Z,18.5
2017-05-11T05:54:29.563Z,18.52
2017-05-11T05:54:55.199Z,18.49
2017-05-11T05:55:20.684Z,18.55
2017-05-11T05:55:46.253Z,18.54
2017-05-11T05:56:11.926Z,18.5
2017-05-11T05:56:37.487Z,18.55
2017-05-11T05:57:03.083Z,18.5
2017-05-11T05:57:28.663Z,18.46
2017-05-11T05:57:54.223Z,18.57
2017-05-11T05:58:19.800Z,18.49
2017-05-11T05:58:45.354Z,18.49
2017-05-11T05:59:10.916Z,18.58
2017-05-11T05:59:36.471Z,18.52
2017-05-11T06:00:02.022Z,18.55
2017-05-11T06:00:50.186Z,18.46
2017-05-11T06:01:15.735Z,18.59
2017-05-11T06:01:41.312Z,18.52
2017-05-11T06:02:06.839Z,18.52
2017-05-11T06:02:32.397Z,18.49
2017-05-11T06:02:57.966Z,18.52
2017-05-11T06:03:23.543Z,18.58
2017-05-11T06:03:49.302Z,18.58
2017-05-11T06:04:14.891Z,18.5
2017-05-11T06:04:40.453Z,18.43
2017-05-11T06:05:06.037Z,18.54
2017-05-11T06:05:31.611Z,18.52
2017-05-11T06:05:57.160Z,18.54
2017-05-11T06:06:22.733Z,18.58
2017-05-11T06:06:48.296Z,18.55
2017-05-11T06:07:13.851Z,18.49
2017-05-11T06:07:39.471Z,18.47
2017-05-11T06:08:05.032Z,18.55
2017-05-11T06:08:30.577Z,18.46
2017-05-11T06:08:56.184Z,18.54
2017-05-11T06:09:21.805Z,18.49
2017-05-11T06:09:47.352Z,18.49
2017-05-11T06:10:13.084Z,18.46
2017-05-11T06:10:38.643Z,18.54
2017-05-11T06:11:04.195Z,18.44
2017-05-11T06:11:29.765Z,18.52
2017-05-11T06:11:55.332Z,18.46
2017-05-11T06:12:20.902Z,18.49
2017-05-11T06:12:46.448Z,18.44
2017-05-11T06:13:12.011Z,18.58
2017-05-11T06:13:37.564Z,18.5
2017-05-11T06:14:03.141Z,18.58
2017-05-11T06:14:28.789Z,18.49
2017-05-11T06:14:54.376Z,18.5
2017-05-11T06:15:19.932Z,18.55
2017-05-11T06:15:45.511Z,18.57
2017-05-11T06:16:11.077Z,18.5
2017-05-11T06:16:36.642Z,18.55
2017-05-11T06:17:02.223Z,18.55
2017-05-11T06:17:27.796Z,18.5
2017-05-11T06:17:53.354Z,18.44
2017-05-11T06:18:18.893Z,18.5
2017-05-11T06:18:44.445Z,18.54
2017-05-11T06:19:09.995Z,18.52
2017-05-11T06:19:35.549Z,18.47
2017-05-11T06:20:01.113Z,18.58
2017-05-11T06:20:26.755Z,18.54
2017-05-11T06:20:52.310Z,18.49
2017-05-11T06:21:17.989Z,18.46
2017-05-11T06:21:43.591Z,18.52
2017-05-11T06:22:09.125Z,18.52
2017-05-11T06:22:34.812Z,18.5
2017-05-11T06:23:00.360Z,18.49
2017-05-11T06:23:25.902Z,18.54
2017-05-11T06:23:51.462Z,18.46
2017-05-11T06:24:17.007Z,18.44
2017-05-11T06:24:42.552Z,18.57
2017-05-11T06:25:08.099Z,18.5
2017-05-11T06:25:33.755Z,18.5
2017-05-11T06:25:59.322Z,18.52
2017-05-11T06:26:24.871Z,18.55
2017-05-11T06:26:50.411Z,18.46
2017-05-11T06:27:15.980Z,18.49
2017-05-11T06:27:41.616Z,18.47
2017-05-11T06:28:07.226Z,18.52
2017-05-11T06:28:32.800Z,18.47
2017-05-11T06:28:58.385Z,18.44
2017-05-11T06:29:23.934Z,18.46
2017-05-11T06:29:49.486Z,18.46
2017-05-11T06:30:15.080Z,18.5
2017-05-11T06:30:40.629Z,18.5
2017-05-11T06:31:06.188Z,18.5
2017-05-11T06:31:31.764Z,18.55
2017-05-11T06:31:57.313Z,18.5
2017-05-11T06:32:22.899Z,18.5
2017-05-11T06:32:48.501Z,18.54
2017-05-11T06:33:14.053Z,18.55
2017-05-11T06:33:39.648Z,18.49
2017-05-11T06:34:05.380Z,18.47
2017-05-11T06:34:30.939Z,18.55
2017-05-11T06:34:56.528Z,18.57
2017-05-11T06:35:22.080Z,18.5
2017-05-11T06:35:47.688Z,18.49
2017-05-11T06:36:13.251Z,18.54
2017-05-11T06:36:38.807Z,18.47
2017-05-11T06:37:04.385Z,18.5
2017-05-11T06:37:29.995Z,18.47
2017-05-11T06:37:55.557Z,18.5
2017-05-11T06:38:21.094Z,18.49
2017-05-11T06:38:46.656Z,18.52
2017-05-11T06:39:12.213Z,18.55
2017-05-11T06:39:37.860Z,18.5
2017-05-11T06:40:03.424Z,18.54
2017-05-11T06:40:29.089Z,18.52
2017-05-11T06:40:54.643Z,18.47
2017-05-11T06:41:20.228Z,18.54
2017-05-11T06:41:45.792Z,18.47
2017-05-11T06:42:11.483Z,18.5
2017-05-11T06:42:37.043Z,18.47
2017-05-11T06:43:02.587Z,18.46
2017-05-11T06:43:28.174Z,18.43
2017-05-11T06:43:53.751Z,18.43
2017-05-11T06:44:19.312Z,18.54
2017-05-11T06:44:44.875Z,18.47
2017-05-11T06:45:10.423Z,18.46
2017-05-11T06:45:35.981Z,18.5
2017-05-11T06:46:01.547Z,18.49
2017-05-11T06:46:27.110Z,18.54
2017-05-11T06:46:52.661Z,18.57
2017-05-11T06:47:18.227Z,18.46
2017-05-11T06:47:43.831Z,18.52
2017-05-11T06:48:09.424Z,18.47
2017-05-11T06:48:34.995Z,18.49
2017-05-11T06:49:00.549Z,18.43
2017-05-11T06:49:26.153Z,18.44
2017-05-11T06:49:51.782Z,18.54
2017-05-11T06:50:17.350Z,18.44
2017-05-11T06:50:42.925Z,18.54
2017-05-11T06:51:08.500Z,18.46
2017-05-11T06:51:34.058Z,18.5
2017-05-11T06:51:59.606Z,18.5
2017-05-11T06:52:25.179Z,18.44
2017-05-11T06:52:50.823Z,18.46
2017-05-11T06:53:16.397Z,18.54
2017-05-11T06:53:41.943Z,18.49
2017-05-11T06:54:07.486Z,18.5
2017-05-11T06:54:33.072Z,18.47
2017-05-11T06:54:58.637Z,18.49
2017-05-11T06:55:24.196Z,18.46
2017-05-11T06:55:49.728Z,18.54
2017-05-11T06:56:15.270Z,18.46
2017-05-11T06:56:40.839Z,18.47
2017-05-11T06:57:06.410Z,18.5
2017-05-11T06:57:31.977Z,18.47
2017-05-11T06:57:57.532Z,18.43
2017-05-11T06:58:23.142Z,18.5
2017-05-11T06:58:48.692Z,18.49
2017-05-11T06:59:14.245Z,18.47
2017-05-11T06:59:39.819Z,18.5
2017-05-11T07:00:05.432Z,18.44
2017-05-11T07:00:31.038Z,18.47
2017-05-11T07:00:56.674Z,18.54
2017-05-11T07:01:22.265Z,18.52
2017-05-11T07:01:47.873Z,18.49
2017-05-11T07:02:13.574Z,18.5
2017-05-11T07:02:39.146Z,18.42
2017-05-11T07:03:04.703Z,18.49
2017-05-11T07:03:30.256Z,18.5
2017-05-11T07:03:55.823Z,18.46
2017-05-11T07:04:21.379Z,18.46
2017-05-11T07:04:46.930Z,18.52
2017-05-11T07:05:12.514Z,18.42
2017-05-11T07:05:38.091Z,18.37
2017-05-11T07:06:03.738Z,18.46
2017-05-11T07:06:29.301Z,18.42
2017-05-11T07:06:54.874Z,18.47
2017-05-11T07:07:20.473Z,18.42
2017-05-11T07:07:46.032Z,18.49
2017-05-11T07:08:11.621Z,18.5
2017-05-11T07:08:37.314Z,18.5
2017-05-11T07:09:02.910Z,18.46
2017-05-11T07:09:28.482Z,18.49
2017-05-11T07:09:54.038Z,18.52
2017-05-11T07:10:19.689Z,18.46
2017-05-11T07:10:45.238Z,18.43
2017-05-11T07:11:10.808Z,18.47
2017-05-11T07:11:36.391Z,18.46
2017-05-11T07:12:01.949Z,18.46
2017-05-11T07:12:27.525Z,18.49
2017-05-11T07:12:53.093Z,18.4
2017-05-11T07:13:18.700Z,18.44
2017-05-11T07:13:44.334Z,18.44
2017-05-11T07:14:09.906Z,18.55
2017-05-11T07:14:35.471Z,18.44
2017-05-11T07:15:28.782Z,18.44
2017-05-11T07:15:54.393Z,18.43
2017-05-11T07:16:19.944Z,18.49
2017-05-11T07:16:45.513Z,18.42
2017-05-11T07:17:11.078Z,18.47
2017-05-11T07:17:36.633Z,18.44
2017-05-11T07:18:02.260Z,18.47
2017-05-11T07:18:27.826Z,18.44
2017-05-11T07:18:53.376Z,18.43
2017-05-11T07:19:18.946Z,18.47
2017-05-11T07:19:44.492Z,18.44
2017-05-11T07:20:10.054Z,18.46
2017-05-11T07:20:35.614Z,18.44
2017-05-11T07:21:01.191Z,18.44
2017-05-11T07:21:26.758Z,18.47
2017-05-11T07:21:52.336Z,18.49
2017-05-11T07:22:17.916Z,18.4
2017-05-11T07:22:43.485Z,18.4
2017-05-11T07:23:09.041Z,18.43
2017-05-11T07:23:34.604Z,18.43
2017-05-11T07:24:00.154Z,18.44
2017-05-11T07:24:25.796Z,18.44
2017-05-11T07:24:51.374Z,18.42
2017-05-11T07:25:17.008Z,18.44
2017-05-11T07:25:42.581Z,18.46
2017-05-11T07:26:08.145Z,18.44
2017-05-11T07:26:33.693Z,18.49
2017-05-11T07:26:59.265Z,18.49
2017-05-11T07:27:24.841Z,18.5
2017-05-11T07:27:50.411Z,18.44
2017-05-11T07:28:16.009Z,18.42
2017-05-11T07:28:41.554Z,18.43
2017-05-11T07:29:07.108Z,18.5
2017-05-11T07:29:32.703Z,18.46
2017-05-11T07:29:58.264Z,18.42
2017-05-11T07:30:23.848Z,18.46
2017-05-11T07:30:49.934Z,18.47
2017-05-11T07:31:15.510Z,18.44
2017-05-11T07:31:41.080Z,18.42
2017-05-11T07:32:06.620Z,18.42
2017-05-11T07:32:32.184Z,18.43
2017-05-11T07:32:57.758Z,18.46
2017-05-11T07:33:23.322Z,18.46
2017-05-11T07:33:48.885Z,18.47
2017-05-11T07:34:14.437Z,18.42
2017-05-11T07:34:39.996Z,18.47
2017-05-11T07:35:05.615Z,18.4
2017-05-11T07:35:31.161Z,18.44
2017-05-11T07:35:56.721Z,18.43
2017-05-11T07:36:22.271Z,18.47
2017-05-11T07:36:47.897Z,18.4
2017-05-11T07:37:13.499Z,18.42
2017-05-11T07:37:38.993Z,18.44
2017-05-11T07:38:04.543Z,18.44
2017-05-11T07:38:30.106Z,18.43
2017-05-11T07:38:55.656Z,18.5
2017-05-11T07:39:21.248Z,18.42
2017-05-11T07:39:46.761Z,18.4
2017-05-11T07:40:12.333Z,18.43
2017-05-11T07:41:10.717Z,18.43
2017-05-11T07:41:36.283Z,18.43
2017-05-11T07:42:01.842Z,18.44
2017-05-11T07:42:27.412Z,18.42
2017-05-11T07:42:52.970Z,18.42
2017-05-11T07:43:18.525Z,18.46
2017-05-11T07:43:44.100Z,18.44
2017-05-11T07:44:09.681Z,18.44
2017-05-11T07:44:35.263Z,18.42
2017-05-11T07:45:00.891Z,18.42
2017-05-11T07:45:26.449Z,18.43
2017-05-11T07:45:52.004Z,18.4
2017-05-11T07:46:17.564Z,18.44
2017-05-11T07:46:43.111Z,18.44
2017-05-11T07:47:08.668Z,18.42
2017-05-11T07:47:34.228Z,18.46
2017-05-11T07:47:59.770Z,18.39
2017-05-11T07:48:25.381Z,18.44
2017-05-11T07:48:50.923Z,18.46
2017-05-11T07:49:16.469Z,18.42
2017-05-11T07:49:42.124Z,18.44
2017-05-11T07:50:07.699Z,18.46
2017-05-11T07:50:33.259Z,18.46
2017-05-11T07:50:58.868Z,18.49
2017-05-11T07:51:24.424Z,18.42
2017-05-11T07:51:49.982Z,18.46
2017-05-11T07:52:15.505Z,18.47
2017-05-11T07:52:41.045Z,18.43
2017-05-11T07:53:06.587Z,18.49
2017-05-11T07:53:32.137Z,18.47
2017-05-11T07:53:57.682Z,18.46
2017-05-11T07:54:23.317Z,18.49
2017-05-11T07:54:48.939Z,18.42
2017-05-11T07:55:14.474Z,18.43
2017-05-11T07:55:40.049Z,18.49
2017-05-11T07:56:05.670Z,18.42
2017-05-11T07:56:31.234Z,18.42
2017-05-11T07:56:56.786Z,18.43
2017-05-11T07:57:22.472Z,18.43
2017-05-11T07:57:48.055Z,18.47
2017-05-11T07:58:13.606Z,18.44
2017-05-11T07:58:39.163Z,18.44
2017-05-11T07:59:04.722Z,18.47
2017-05-11T07:59:30.302Z,18.42
2017-05-11T07:59:55.865Z,18.49
2017-05-11T08:00:21.413Z,18.42
2017-05-11T08:00:46.982Z,18.42
2017-05-11T08:01:12.641Z,18.42
2017-05-11T08:01:38.222Z,18.4
2017-05-11T08:02:03.774Z,18.43
2017-05-11T08:02:29.344Z,18.47
2017-05-11T08:02:54.902Z,18.49
2017-05-11T08:03:20.467Z,18.46
2017-05-11T08:03:46.032Z,18.49
2017-05-11T08:04:11.623Z,18.46
2017-05-11T08:04:37.219Z,18.47
2017-05-11T08:05:02.808Z,18.49
2017-05-11T08:05:28.406Z,18.47
2017-05-11T08:05:53.971Z,18.46
2017-05-11T08:06:19.669Z,18.46
2017-05-11T08:06:45.231Z,18.42
2017-05-11T08:07:10.832Z,18.39
2017-05-11T08:07:36.415Z,18.42
2017-05-11T08:08:01.982Z,18.49
2017-05-11T08:08:27.558Z,18.43
2017-05-11T08:08:53.219Z,18.42
2017-05-11T08:09:41.482Z,18.46
2017-05-11T08:10:07.049Z,18.43
2017-05-11T08:10:32.579Z,18.42
2017-05-11T08:10:58.130Z,18.44
2017-05-11T08:11:23.673Z,18.39
2017-05-11T08:11:49.290Z,18.49
2017-05-11T08:12:14.861Z,18.5
2017-05-11T08:12:40.424Z,18.4
2017-05-11T08:13:06.053Z,18.43
2017-05-11T08:13:31.692Z,18.44
2017-05-11T08:13:57.251Z,18.4
2017-05-11T08:14:22.811Z,18.4
2017-05-11T08:14:48.380Z,18.4
2017-05-11T08:15:13.920Z,18.43
2017-05-11T08:15:39.468Z,18.44
2017-05-11T08:16:05.034Z,18.42
2017-05-11T08:16:30.644Z,18.43
2017-05-11T08:16:56.168Z,18.4
2017-05-11T08:17:21.806Z,18.42
2017-05-11T08:17:47.365Z,18.4
2017-05-11T08:18:12.954Z,18.37
2017-05-11T08:18:38.551Z,18.42
2017-05-11T08:19:04.110Z,18.44
2017-05-11T08:19:29.704Z,18.42
2017-05-11T08:19:55.260Z,18.42
2017-05-11T08:20:20.874Z,18.49
2017-05-11T08:20:46.493Z,18.4
2017-05-11T08:21:12.064Z,18.52
2017-05-11T08:21:37.634Z,18.4
2017-05-11T08:22:03.250Z,18.43
2017-05-11T08:22:28.821Z,18.43
2017-05-11T08:22:54.384Z,18.4
2017-05-11T08:23:19.944Z,18.4
2017-05-11T08:23:45.663Z,18.4
2017-05-11T08:24:11.222Z,18.4
2017-05-11T08:24:36.790Z,18.42
2017-05-11T08:25:02.335Z,18.42
2017-05-11T08:25:27.913Z,18.43
2017-05-11T08:25:53.456Z,18.4
2017-05-11T08:26:19.028Z,18.39
2017-05-11T08:26:44.593Z,18.44
2017-05-11T08:27:10.271Z,18.46
2017-05-11T08:27:35.844Z,18.43
2017-05-11T08:28:01.461Z,18.42
2017-05-11T08:28:27.065Z,18.46
2017-05-11T08:28:52.722Z,18.39
2017-05-11T08:29:18.287Z,18.43
2017-05-11T08:29:43.842Z,18.43
2017-05-11T08:30:09.411Z,18.47
2017-05-11T08:30:34.980Z,18.42
2017-05-11T08:31:00.557Z,18.37
2017-05-11T08:31:26.141Z,18.42
2017-05-11T08:31:51.794Z,18.39
2017-05-11T08:32:17.353Z,18.43
2017-05-11T08:32:43.069Z,18.44
2017-05-11T08:33:08.705Z,18.5
2017-05-11T08:33:34.264Z,18.42